sensor_id;sensor_type;location;lat;lon;timestamp;temperature;humidity
4461;DHT22;2243;48.812;9.232;2024-03-23T00:52:51;11.10;99.90
4461;DHT22;2243;48.812;9.232;2024-03-23T00:55:22;11.00;99.90
4461;DHT22;2243;48.812;9.232;2024-03-23T00:57:52;11.10;99.90
4461;DHT22;2243;48.812;9.232;2024-03-23T01:00:22;11.00;99.90
4461;DHT22;2243;48.812;9.232;2024-03-23T01:02:52;11.00;99.90
4461;DHT22;2243;48.812;9.232;2024-03-23T01:05:22;11.00;99.90
4461;DHT22;2243;48.812;9.232;2024-03-23T01:07:52;11.10;99.90
4461;DHT22;2243;48.812;9.232;2024-03-23T01:10:22;11.10;99.90
4461;DHT22;2243;48.812;9.232;2024-03-23T01:12:51;11.10;99.90
4461;DHT22;2243;48.812;9.232;2024-03-23T01:15:21;11.00;99.90
4461;DHT22;2243;48.812;9.232;2024-03-23T01:17:51;11.00;99.90
4461;DHT22;2243;48.812;9.232;2024-03-23T01:20:21;11.10;99.90
4461;DHT22;2243;48.812;9.232;2024-03-23T01:22:51;11.10;99.90
4461;DHT22;2243;48.812;9.232;2024-03-23T01:25:21;11.20;99.90
4461;DHT22;2243;48.812;9.232;2024-03-23T01:27:51;11.10;99.90
4461;DHT22;2243;48.812;9.232;2024-03-23T01:30:21;11.20;99.90
4461;DHT22;2243;48.812;9.232;2024-03-23T01:32:51;11.20;99.90
4461;DHT22;2243;48.812;9.232;2024-03-23T01:35:21;11.30;99.90
4461;DHT22;2243;48.812;9.232;2024-03-23T01:37:51;11.30;99.90
4461;DHT22;2243;48.812;9.232;2024-03-23T01:40:21;11.30;99.90
4461;DHT22;2243;48.812;9.232;2024-03-23T01:42:58;11.30;99.90
4461;DHT22;2243;48.812;9.232;2024-03-23T01:45:33;11.40;99.90
4461;DHT22;2243;48.812;9.232;2024-03-23T01:48:04;11.40;99.90
4461;DHT22;2243;48.812;9.232;2024-03-23T01:50:34;11.40;99.90
4461;DHT22;2243;48.812;9.232;2024-03-23T01:53:05;11.50;99.90
4461;DHT22;2243;48.812;9.232;2024-03-23T01:55:36;11.50;99.90
4461;DHT22;2243;48.812;9.232;2024-03-23T01:58:06;11.50;99.90
4461;DHT22;2243;48.812;9.232;2024-03-23T02:00:37;11.70;99.90
4461;DHT22;2243;48.812;9.232;2024-03-23T02:03:26;11.80;99.90
4461;DHT22;2243;48.812;9.232;2024-03-23T02:05:57;11.80;99.90
4461;DHT22;2243;48.812;9.232;2024-03-23T02:08:28;11.80;99.90
4461;DHT22;2243;48.812;9.232;2024-03-23T02:10:58;11.80;99.90
4461;DHT22;2243;48.812;9.232;2024-03-23T02:13:28;11.80;99.90
4461;DHT22;2243;48.812;9.232;2024-03-23T02:15:58;11.80;99.90
4461;DHT22;2243;48.812;9.232;2024-03-23T02:18:28;11.80;99.90
4461;DHT22;2243;48.812;9.232;2024-03-23T02:20:58;12.00;99.90
4461;DHT22;2243;48.812;9.232;2024-03-23T02:23:28;12.10;99.90
4461;DHT22;2243;48.812;9.232;2024-03-23T02:25:58;12.20;99.90
4461;DHT22;2243;48.812;9.232;2024-03-23T02:28:28;12.30;99.90
4461;DHT22;2243;48.812;9.232;2024-03-23T02:30:58;12.20;99.90
4461;DHT22;2243;48.812;9.232;2024-03-23T02:33:30;12.20;99.90
4461;DHT22;2243;48.812;9.232;2024-03-23T02:36:00;12.30;99.90
4461;DHT22;2243;48.812;9.232;2024-03-23T02:38:30;12.20;99.90
4461;DHT22;2243;48.812;9.232;2024-03-23T02:41:03;12.30;99.90
4461;DHT22;2243;48.812;9.232;2024-03-23T02:43:34;12.30;99.90
4461;DHT22;2243;48.812;9.232;2024-03-23T02:46:04;12.40;99.90
4461;DHT22;2243;48.812;9.232;2024-03-23T02:48:34;12.30;99.90
4461;DHT22;2243;48.812;9.232;2024-03-23T02:51:04;12.30;99.90
4461;DHT22;2243;48.812;9.232;2024-03-23T02:53:34;12.30;99.90
4461;DHT22;2243;48.812;9.232;2024-03-23T02:56:04;12.30;99.90
4461;DHT22;2243;48.812;9.232;2024-03-23T02:58:34;12.30;99.90
4461;DHT22;2243;48.812;9.232;2024-03-23T03:01:04;12.30;99.90
4461;DHT22;2243;48.812;9.232;2024-03-23T03:03:34;12.50;99.90
4461;DHT22;2243;48.812;9.232;2024-03-23T03:06:04;12.60;99.90
4461;DHT22;2243;48.812;9.232;2024-03-23T03:08:34;12.70;99.90
4461;DHT22;2243;48.812;9.232;2024-03-23T03:11:04;12.70;99.90
4461;DHT22;2243;48.812;9.232;2024-03-23T03:13:34;12.80;99.90
4461;DHT22;2243;48.812;9.232;2024-03-23T03:16:09;12.80;99.90
4461;DHT22;2243;48.812;9.232;2024-03-23T03:18:39;12.80;99.90
4461;DHT22;2243;48.812;9.232;2024-03-23T03:21:10;12.90;99.90
4461;DHT22;2243;48.812;9.232;2024-03-23T03:23:40;12.90;99.90
4461;DHT22;2243;48.812;9.232;2024-03-23T03:26:10;13.00;99.90
4461;DHT22;2243;48.812;9.232;2024-03-23T03:28:40;13.10;99.90
4461;DHT22;2243;48.812;9.232;2024-03-23T03:31:10;13.10;99.90
4461;DHT22;2243;48.812;9.232;2024-03-23T03:33:40;13.00;99.90
4461;DHT22;2243;48.812;9.232;2024-03-23T03:36:11;13.00;99.90
4461;DHT22;2243;48.812;9.232;2024-03-23T03:38:41;13.00;99.90
4461;DHT22;2243;48.812;9.232;2024-03-23T03:41:10;13.10;99.90
4461;DHT22;2243;48.812;9.232;2024-03-23T03:43:40;13.10;99.90
4461;DHT22;2243;48.812;9.232;2024-03-23T03:46:10;13.10;99.90
4461;DHT22;2243;48.812;9.232;2024-03-23T03:48:40;13.10;99.90
4461;DHT22;2243;48.812;9.232;2024-03-23T03:51:10;13.10;99.90
4461;DHT22;2243;48.812;9.232;2024-03-23T03:53:40;13.20;99.90
4461;DHT22;2243;48.812;9.232;2024-03-23T03:56:10;13.20;99.90
4461;DHT22;2243;48.812;9.232;2024-03-23T03:58:40;13.10;99.90
4461;DHT22;2243;48.812;9.232;2024-03-23T04:01:10;13.00;99.90
4461;DHT22;2243;48.812;9.232;2024-03-23T04:03:40;13.00;99.90
4461;DHT22;2243;48.812;9.232;2024-03-23T04:06:19;12.90;99.90
4461;DHT22;2243;48.812;9.232;2024-03-23T04:08:49;12.70;99.90
4461;DHT22;2243;48.812;9.232;2024-03-23T04:11:19;12.70;99.90
4461;DHT22;2243;48.812;9.232;2024-03-23T04:13:49;12.60;99.90
4461;DHT22;2243;48.812;9.232;2024-03-23T04:16:29;12.60;99.90
4461;DHT22;2243;48.812;9.232;2024-03-23T04:19:03;12.50;99.90
4461;DHT22;2243;48.812;9.232;2024-03-23T04:21:33;12.40;99.90
4461;DHT22;2243;48.812;9.232;2024-03-23T04:24:04;12.30;99.90
4461;DHT22;2243;48.812;9.232;2024-03-23T04:26:41;12.30;99.90
4461;DHT22;2243;48.812;9.232;2024-03-23T04:29:12;12.50;99.90
4461;DHT22;2243;48.812;9.232;2024-03-23T04:31:42;12.50;99.90
4461;DHT22;2243;48.812;9.232;2024-03-23T04:34:12;12.60;99.90
4461;DHT22;2243;48.812;9.232;2024-03-23T04:36:43;12.80;99.90
4461;DHT22;2243;48.812;9.232;2024-03-23T04:39:12;12.80;99.90
4461;DHT22;2243;48.812;9.232;2024-03-23T04:41:42;12.40;99.90
4461;DHT22;2243;48.812;9.232;2024-03-23T04:44:12;11.70;99.90
4461;DHT22;2243;48.812;9.232;2024-03-23T04:46:42;11.40;99.90
4461;DHT22;2243;48.812;9.232;2024-03-23T04:49:12;11.20;99.90
4461;DHT22;2243;48.812;9.232;2024-03-23T04:51:42;10.90;99.90
4461;DHT22;2243;48.812;9.232;2024-03-23T04:54:15;10.90;99.90
4461;DHT22;2243;48.812;9.232;2024-03-23T04:56:46;10.70;99.90
4461;DHT22;2243;48.812;9.232;2024-03-23T04:59:16;10.70;99.90
4461;DHT22;2243;48.812;9.232;2024-03-23T05:01:46;10.60;99.90
4461;DHT22;2243;48.812;9.232;2024-03-23T05:04:15;10.70;99.90
4461;DHT22;2243;48.812;9.232;2024-03-23T05:06:45;10.90;99.90
4461;DHT22;2243;48.812;9.232;2024-03-23T05:09:15;10.90;99.90
4461;DHT22;2243;48.812;9.232;2024-03-23T05:11:46;11.00;99.90
4461;DHT22;2243;48.812;9.232;2024-03-23T05:14:16;11.00;99.90
4461;DHT22;2243;48.812;9.232;2024-03-23T05:16:46;10.90;99.90
4461;DHT22;2243;48.812;9.232;2024-03-23T05:19:16;10.90;99.90
4461;DHT22;2243;48.812;9.232;2024-03-23T05:21:46;10.90;99.90
4461;DHT22;2243;48.812;9.232;2024-03-23T05:24:16;10.70;99.90
4461;DHT22;2243;48.812;9.232;2024-03-23T05:26:46;10.70;99.90
4461;DHT22;2243;48.812;9.232;2024-03-23T05:29:16;10.60;99.90
4461;DHT22;2243;48.812;9.232;2024-03-23T05:31:51;10.50;99.90
4461;DHT22;2243;48.812;9.232;2024-03-23T05:34:21;10.40;99.90
4461;DHT22;2243;48.812;9.232;2024-03-23T05:36:51;10.40;99.90
4461;DHT22;2243;48.812;9.232;2024-03-23T05:39:21;10.30;99.90
4461;DHT22;2243;48.812;9.232;2024-03-23T05:41:51;10.20;99.90
4461;DHT22;2243;48.812;9.232;2024-03-23T05:44:21;10.20;99.90
4461;DHT22;2243;48.812;9.232;2024-03-23T05:46:51;10.10;99.90
4461;DHT22;2243;48.812;9.232;2024-03-23T05:49:21;10.10;99.90
4461;DHT22;2243;48.812;9.232;2024-03-23T05:51:51;10.10;99.90
4461;DHT22;2243;48.812;9.232;2024-03-23T05:54:21;10.10;99.90
4461;DHT22;2243;48.812;9.232;2024-03-23T05:56:54;10.10;99.90
4461;DHT22;2243;48.812;9.232;2024-03-23T05:59:25;10.00;99.90
4461;DHT22;2243;48.812;9.232;2024-03-23T06:01:56;10.00;99.90
4461;DHT22;2243;48.812;9.232;2024-03-23T06:04:26;9.90;99.90
4461;DHT22;2243;48.812;9.232;2024-03-23T06:06:56;9.80;99.90
4461;DHT22;2243;48.812;9.232;2024-03-23T06:09:27;9.70;99.90
4461;DHT22;2243;48.812;9.232;2024-03-23T06:11:57;9.60;99.90
4461;DHT22;2243;48.812;9.232;2024-03-23T06:14:27;9.60;99.90
4461;DHT22;2243;48.812;9.232;2024-03-23T06:16:57;9.60;99.90
4461;DHT22;2243;48.812;9.232;2024-03-23T06:19:27;9.60;99.90
4461;DHT22;2243;48.812;9.232;2024-03-23T06:21:57;9.70;99.90
4461;DHT22;2243;48.812;9.232;2024-03-23T06:24:27;9.80;99.90
4461;DHT22;2243;48.812;9.232;2024-03-23T06:26:57;9.80;99.90
4461;DHT22;2243;48.812;9.232;2024-03-23T06:29:27;9.90;99.90
4461;DHT22;2243;48.812;9.232;2024-03-23T06:31:57;9.80;99.90
4461;DHT22;2243;48.812;9.232;2024-03-23T06:34:27;9.90;99.90
4461;DHT22;2243;48.812;9.232;2024-03-23T06:36:57;9.90;99.90
4461;DHT22;2243;48.812;9.232;2024-03-23T06:39:27;9.90;99.90
4461;DHT22;2243;48.812;9.232;2024-03-23T06:41:57;9.90;99.90
4461;DHT22;2243;48.812;9.232;2024-03-23T06:44:27;9.90;99.90
4461;DHT22;2243;48.812;9.232;2024-03-23T06:46:57;10.00;99.90
4461;DHT22;2243;48.812;9.232;2024-03-23T06:49:27;9.90;99.90
4461;DHT22;2243;48.812;9.232;2024-03-23T06:51:57;9.90;99.90
4461;DHT22;2243;48.812;9.232;2024-03-23T06:54:27;10.00;99.90
4461;DHT22;2243;48.812;9.232;2024-03-23T06:56:57;10.00;99.90
4461;DHT22;2243;48.812;9.232;2024-03-23T06:59:27;9.90;99.90
4461;DHT22;2243;48.812;9.232;2024-03-23T07:01:57;9.80;99.90
4461;DHT22;2243;48.812;9.232;2024-03-23T07:04:27;9.80;99.90
4461;DHT22;2243;48.812;9.232;2024-03-23T07:06:57;9.90;99.90
4461;DHT22;2243;48.812;9.232;2024-03-23T07:09:27;9.80;99.90
4461;DHT22;2243;48.812;9.232;2024-03-23T07:11:58;9.80;99.90
4461;DHT22;2243;48.812;9.232;2024-03-23T07:14:28;9.80;99.90
4461;DHT22;2243;48.812;9.232;2024-03-23T07:16:58;9.70;99.90
4461;DHT22;2243;48.812;9.232;2024-03-23T07:19:28;9.80;99.90
4461;DHT22;2243;48.812;9.232;2024-03-23T07:21:58;9.70;99.90
4461;DHT22;2243;48.812;9.232;2024-03-23T07:24:28;9.70;99.90
4461;DHT22;2243;48.812;9.232;2024-03-23T07:27:00;9.60;99.90
4461;DHT22;2243;48.812;9.232;2024-03-23T07:29:30;9.60;99.90
4461;DHT22;2243;48.812;9.232;2024-03-23T07:32:00;9.60;99.90
4461;DHT22;2243;48.812;9.232;2024-03-23T07:34:30;9.60;99.90
4461;DHT22;2243;48.812;9.232;2024-03-23T07:37:00;9.60;99.90
4461;DHT22;2243;48.812;9.232;2024-03-23T07:39:30;9.60;99.90
4461;DHT22;2243;48.812;9.232;2024-03-23T07:42:02;9.60;99.90
4461;DHT22;2243;48.812;9.232;2024-03-23T07:44:33;9.70;99.90
4461;DHT22;2243;48.812;9.232;2024-03-23T07:47:03;9.60;99.90
4461;DHT22;2243;48.812;9.232;2024-03-23T07:49:34;9.60;99.90
4461;DHT22;2243;48.812;9.232;2024-03-23T07:52:04;9.60;99.90
4461;DHT22;2243;48.812;9.232;2024-03-23T07:54:34;9.40;99.90
4461;DHT22;2243;48.812;9.232;2024-03-23T07:57:04;9.10;99.90
4461;DHT22;2243;48.812;9.232;2024-03-23T07:59:35;8.90;99.90
4461;DHT22;2243;48.812;9.232;2024-03-23T08:02:05;8.80;99.90
4461;DHT22;2243;48.812;9.232;2024-03-23T08:04:35;8.80;99.90
4461;DHT22;2243;48.812;9.232;2024-03-23T08:07:05;8.70;99.90
4461;DHT22;2243;48.812;9.232;2024-03-23T08:09:35;8.70;99.90
4461;DHT22;2243;48.812;9.232;2024-03-23T08:12:05;8.70;99.90
4461;DHT22;2243;48.812;9.232;2024-03-23T08:14:35;8.60;99.90
4461;DHT22;2243;48.812;9.232;2024-03-23T08:17:05;8.60;99.90
4461;DHT22;2243;48.812;9.232;2024-03-23T08:19:35;8.50;99.90
4461;DHT22;2243;48.812;9.232;2024-03-23T08:22:05;8.50;99.90
4461;DHT22;2243;48.812;9.232;2024-03-23T08:24:35;8.50;99.90
4461;DHT22;2243;48.812;9.232;2024-03-23T08:27:05;8.40;99.90
4461;DHT22;2243;48.812;9.232;2024-03-23T08:29:35;8.40;99.90
4461;DHT22;2243;48.812;9.232;2024-03-23T08:32:05;8.40;99.90
4461;DHT22;2243;48.812;9.232;2024-03-23T08:34:35;8.30;99.90
4461;DHT22;2243;48.812;9.232;2024-03-23T08:37:05;8.40;99.90
4461;DHT22;2243;48.812;9.232;2024-03-23T08:39:35;8.50;99.90
4461;DHT22;2243;48.812;9.232;2024-03-23T08:42:05;8.50;99.90
4461;DHT22;2243;48.812;9.232;2024-03-23T08:44:35;8.50;99.90
4461;DHT22;2243;48.812;9.232;2024-03-23T08:47:05;8.50;99.90
4461;DHT22;2243;48.812;9.232;2024-03-23T08:49:35;8.40;99.90
4461;DHT22;2243;48.812;9.232;2024-03-23T08:52:05;8.60;99.90
4461;DHT22;2243;48.812;9.232;2024-03-23T08:54:35;8.70;99.90
4461;DHT22;2243;48.812;9.232;2024-03-23T08:57:05;8.70;99.90
4461;DHT22;2243;48.812;9.232;2024-03-23T08:59:38;8.50;99.90
4461;DHT22;2243;48.812;9.232;2024-03-23T09:02:08;8.20;99.90
4461;DHT22;2243;48.812;9.232;2024-03-23T09:04:37;8.00;99.90
4461;DHT22;2243;48.812;9.232;2024-03-23T09:07:07;7.80;99.90
4461;DHT22;2243;48.812;9.232;2024-03-23T09:09:39;7.60;99.90
4461;DHT22;2243;48.812;9.232;2024-03-23T09:12:09;7.40;99.90
4461;DHT22;2243;48.812;9.232;2024-03-23T09:14:39;7.50;99.90
4461;DHT22;2243;48.812;9.232;2024-03-23T09:17:09;7.60;99.90
4461;DHT22;2243;48.812;9.232;2024-03-23T09:19:40;7.60;99.90
4461;DHT22;2243;48.812;9.232;2024-03-23T09:22:10;7.60;99.90
4461;DHT22;2243;48.812;9.232;2024-03-23T09:24:40;7.70;99.90
4461;DHT22;2243;48.812;9.232;2024-03-23T09:27:10;7.80;99.90
4461;DHT22;2243;48.812;9.232;2024-03-23T09:29:40;8.00;99.90
4461;DHT22;2243;48.812;9.232;2024-03-23T09:32:10;8.10;99.90
4461;DHT22;2243;48.812;9.232;2024-03-23T09:34:40;8.30;99.90
4461;DHT22;2243;48.812;9.232;2024-03-23T09:37:10;8.40;99.90
4461;DHT22;2243;48.812;9.232;2024-03-23T09:39:39;8.50;99.90
4461;DHT22;2243;48.812;9.232;2024-03-23T09:42:11;8.60;99.90
4461;DHT22;2243;48.812;9.232;2024-03-23T09:44:41;8.70;99.90
4461;DHT22;2243;48.812;9.232;2024-03-23T09:47:11;8.70;99.90
4461;DHT22;2243;48.812;9.232;2024-03-23T09:49:41;8.80;99.90
4461;DHT22;2243;48.812;9.232;2024-03-23T09:52:11;8.90;99.90
4461;DHT22;2243;48.812;9.232;2024-03-23T09:54:41;8.80;99.90
4461;DHT22;2243;48.812;9.232;2024-03-23T09:57:11;9.00;99.90
4461;DHT22;2243;48.812;9.232;2024-03-23T09:59:41;9.10;99.90
4461;DHT22;2243;48.812;9.232;2024-03-23T10:02:11;9.20;99.90
4461;DHT22;2243;48.812;9.232;2024-03-23T10:04:46;9.20;99.90
4461;DHT22;2243;48.812;9.232;2024-03-23T10:07:20;9.20;99.90
4461;DHT22;2243;48.812;9.232;2024-03-23T10:09:51;9.20;99.90
4461;DHT22;2243;48.812;9.232;2024-03-23T10:12:22;9.20;99.90
4461;DHT22;2243;48.812;9.232;2024-03-23T10:14:53;9.20;99.90
4461;DHT22;2243;48.812;9.232;2024-03-23T10:17:23;9.30;99.90
4461;DHT22;2243;48.812;9.232;2024-03-23T10:19:56;9.40;99.90
4461;DHT22;2243;48.812;9.232;2024-03-23T10:22:26;9.40;99.90
4461;DHT22;2243;48.812;9.232;2024-03-23T10:25:07;9.70;99.90
4461;DHT22;2243;48.812;9.232;2024-03-23T10:27:38;9.80;99.90
4461;DHT22;2243;48.812;9.232;2024-03-23T10:30:13;10.00;99.90
4461;DHT22;2243;48.812;9.232;2024-03-23T10:32:46;10.10;99.90
4461;DHT22;2243;48.812;9.232;2024-03-23T10:35:20;10.20;99.90
4461;DHT22;2243;48.812;9.232;2024-03-23T10:37:53;10.20;99.90
4461;DHT22;2243;48.812;9.232;2024-03-23T10:40:25;10.20;99.90
4461;DHT22;2243;48.812;9.232;2024-03-23T10:42:58;10.30;99.90
4461;DHT22;2243;48.812;9.232;2024-03-23T10:45:28;10.30;99.90
4461;DHT22;2243;48.812;9.232;2024-03-23T10:47:58;10.20;99.90
4461;DHT22;2243;48.812;9.232;2024-03-23T10:50:28;10.10;99.90
4461;DHT22;2243;48.812;9.232;2024-03-23T10:52:59;10.10;99.90
4461;DHT22;2243;48.812;9.232;2024-03-23T10:55:30;10.00;99.90
4461;DHT22;2243;48.812;9.232;2024-03-23T10:58:01;9.70;99.90
4461;DHT22;2243;48.812;9.232;2024-03-23T11:00:32;8.80;99.90
4461;DHT22;2243;48.812;9.232;2024-03-23T11:03:34;8.30;99.90
4461;DHT22;2243;48.812;9.232;2024-03-23T11:06:08;7.70;99.90
4461;DHT22;2243;48.812;9.232;2024-03-23T11:08:39;7.40;99.90
4461;DHT22;2243;48.812;9.232;2024-03-23T11:11:20;7.10;99.90
4461;DHT22;2243;48.812;9.232;2024-03-23T11:13:53;6.80;99.90
4461;DHT22;2243;48.812;9.232;2024-03-23T11:19:35;6.20;99.90
4461;DHT22;2243;48.812;9.232;2024-03-23T11:22:06;6.10;99.90
4461;DHT22;2243;48.812;9.232;2024-03-23T11:24:37;6.20;99.90
4461;DHT22;2243;48.812;9.232;2024-03-23T11:27:17;6.30;99.90
4461;DHT22;2243;48.812;9.232;2024-03-23T11:29:47;6.30;99.90
4461;DHT22;2243;48.812;9.232;2024-03-23T11:32:17;6.30;99.90
4461;DHT22;2243;48.812;9.232;2024-03-23T11:34:47;6.50;99.90
4461;DHT22;2243;48.812;9.232;2024-03-23T11:37:17;6.60;99.90
4461;DHT22;2243;48.812;9.232;2024-03-23T11:39:47;6.80;99.90
4461;DHT22;2243;48.812;9.232;2024-03-23T11:42:18;7.00;99.90
4461;DHT22;2243;48.812;9.232;2024-03-23T11:44:50;7.20;99.90
4461;DHT22;2243;48.812;9.232;2024-03-23T11:47:20;7.50;99.90
4461;DHT22;2243;48.812;9.232;2024-03-23T11:49:50;7.80;99.90
4461;DHT22;2243;48.812;9.232;2024-03-23T11:52:20;8.00;99.90
4461;DHT22;2243;48.812;9.232;2024-03-23T11:54:49;8.20;99.90
4461;DHT22;2243;48.812;9.232;2024-03-23T11:57:20;8.40;99.90
4461;DHT22;2243;48.812;9.232;2024-03-23T11:59:49;8.50;99.90
4461;DHT22;2243;48.812;9.232;2024-03-23T12:02:19;8.60;99.90
4461;DHT22;2243;48.812;9.232;2024-03-23T12:04:49;8.70;99.90
4461;DHT22;2243;48.812;9.232;2024-03-23T12:07:20;8.80;99.90
4461;DHT22;2243;48.812;9.232;2024-03-23T12:10:09;8.90;99.90
4461;DHT22;2243;48.812;9.232;2024-03-23T12:12:39;8.90;99.90
4461;DHT22;2243;48.812;9.232;2024-03-23T12:15:09;9.00;99.90
4461;DHT22;2243;48.812;9.232;2024-03-23T12:17:42;9.00;99.90
4461;DHT22;2243;48.812;9.232;2024-03-23T12:20:12;8.90;99.90
4461;DHT22;2243;48.812;9.232;2024-03-23T12:22:42;9.00;99.90
4461;DHT22;2243;48.812;9.232;2024-03-23T12:25:12;9.00;99.90
4461;DHT22;2243;48.812;9.232;2024-03-23T12:27:41;9.00;99.90
4461;DHT22;2243;48.812;9.232;2024-03-23T12:30:12;8.90;99.90
4461;DHT22;2243;48.812;9.232;2024-03-23T12:32:42;8.90;99.90
4461;DHT22;2243;48.812;9.232;2024-03-23T12:35:12;9.00;99.90
4461;DHT22;2243;48.812;9.232;2024-03-23T12:37:43;9.10;99.90
4461;DHT22;2243;48.812;9.232;2024-03-23T12:40:13;9.40;99.90
4461;DHT22;2243;48.812;9.232;2024-03-23T12:42:43;9.80;99.90
4461;DHT22;2243;48.812;9.232;2024-03-23T12:45:13;10.20;99.90
4461;DHT22;2243;48.812;9.232;2024-03-23T12:47:43;10.10;99.90
4461;DHT22;2243;48.812;9.232;2024-03-23T12:50:14;9.80;99.90
4461;DHT22;2243;48.812;9.232;2024-03-23T12:52:43;9.60;99.90
4461;DHT22;2243;48.812;9.232;2024-03-23T12:55:13;9.50;99.90
4461;DHT22;2243;48.812;9.232;2024-03-23T12:57:44;9.30;99.90
4461;DHT22;2243;48.812;9.232;2024-03-23T13:00:14;9.30;99.90
4461;DHT22;2243;48.812;9.232;2024-03-23T13:02:46;9.40;99.90
4461;DHT22;2243;48.812;9.232;2024-03-23T13:05:16;9.40;99.90
4461;DHT22;2243;48.812;9.232;2024-03-23T13:07:46;9.70;99.90
4461;DHT22;2243;48.812;9.232;2024-03-23T13:10:16;10.10;99.90
4461;DHT22;2243;48.812;9.232;2024-03-23T13:12:46;10.50;99.90
4461;DHT22;2243;48.812;9.232;2024-03-23T13:15:16;10.70;99.90
4461;DHT22;2243;48.812;9.232;2024-03-23T13:17:47;11.00;99.90
4461;DHT22;2243;48.812;9.232;2024-03-23T13:20:17;11.20;99.90
4461;DHT22;2243;48.812;9.232;2024-03-23T13:22:47;11.30;99.90
4461;DHT22;2243;48.812;9.232;2024-03-23T13:25:17;11.20;99.90
4461;DHT22;2243;48.812;9.232;2024-03-23T13:27:48;11.10;99.90
4461;DHT22;2243;48.812;9.232;2024-03-23T13:30:18;10.90;99.90
4461;DHT22;2243;48.812;9.232;2024-03-23T13:32:48;10.90;99.90
4461;DHT22;2243;48.812;9.232;2024-03-23T13:35:18;10.70;99.90
4461;DHT22;2243;48.812;9.232;2024-03-23T13:37:48;10.60;99.90
4461;DHT22;2243;48.812;9.232;2024-03-23T13:40:18;10.60;99.90
4461;DHT22;2243;48.812;9.232;2024-03-23T13:42:49;10.60;99.90
4461;DHT22;2243;48.812;9.232;2024-03-23T13:45:21;10.80;99.90
4461;DHT22;2243;48.812;9.232;2024-03-23T13:47:51;10.90;99.90
4461;DHT22;2243;48.812;9.232;2024-03-23T13:50:21;11.00;99.90
4461;DHT22;2243;48.812;9.232;2024-03-23T13:52:51;11.20;99.90
4461;DHT22;2243;48.812;9.232;2024-03-23T13:55:21;11.40;99.90
4461;DHT22;2243;48.812;9.232;2024-03-23T13:57:51;11.60;99.30
4461;DHT22;2243;48.812;9.232;2024-03-23T14:00:21;11.70;98.60
4461;DHT22;2243;48.812;9.232;2024-03-23T14:02:51;11.90;98.30
4461;DHT22;2243;48.812;9.232;2024-03-23T14:05:21;11.70;99.90
4461;DHT22;2243;48.812;9.232;2024-03-23T14:07:51;10.50;99.90
4461;DHT22;2243;48.812;9.232;2024-03-23T14:10:21;9.60;99.90
4461;DHT22;2243;48.812;9.232;2024-03-23T14:12:51;8.70;99.90
4461;DHT22;2243;48.812;9.232;2024-03-23T14:15:21;8.20;99.90
4461;DHT22;2243;48.812;9.232;2024-03-23T14:17:51;7.60;99.90
4461;DHT22;2243;48.812;9.232;2024-03-23T14:20:21;7.20;99.90
4461;DHT22;2243;48.812;9.232;2024-03-23T14:22:52;6.80;99.90
4461;DHT22;2243;48.812;9.232;2024-03-23T14:25:22;6.30;99.90
4461;DHT22;2243;48.812;9.232;2024-03-23T14:27:56;5.70;99.90
4461;DHT22;2243;48.812;9.232;2024-03-23T14:30:27;5.40;99.90
4461;DHT22;2243;48.812;9.232;2024-03-23T14:32:58;5.20;99.90
4461;DHT22;2243;48.812;9.232;2024-03-23T14:35:28;5.20;99.90
4461;DHT22;2243;48.812;9.232;2024-03-23T14:37:57;5.40;99.90
4461;DHT22;2243;48.812;9.232;2024-03-23T14:40:28;5.70;99.90
4461;DHT22;2243;48.812;9.232;2024-03-23T14:42:58;6.10;99.90
4461;DHT22;2243;48.812;9.232;2024-03-23T14:45:28;6.40;99.90
4461;DHT22;2243;48.812;9.232;2024-03-23T14:47:58;6.60;99.90
4461;DHT22;2243;48.812;9.232;2024-03-23T14:50:28;6.90;99.90
4461;DHT22;2243;48.812;9.232;2024-03-23T14:52:58;7.20;99.90
4461;DHT22;2243;48.812;9.232;2024-03-23T14:55:28;7.40;99.90
4461;DHT22;2243;48.812;9.232;2024-03-23T14:57:58;7.60;99.90
4461;DHT22;2243;48.812;9.232;2024-03-23T15:00:29;7.40;99.90
4461;DHT22;2243;48.812;9.232;2024-03-23T15:02:59;7.40;99.90
4461;DHT22;2243;48.812;9.232;2024-03-23T15:05:29;7.30;99.90
4461;DHT22;2243;48.812;9.232;2024-03-23T15:07:59;7.20;99.90
4461;DHT22;2243;48.812;9.232;2024-03-23T15:10:29;7.20;99.90
4461;DHT22;2243;48.812;9.232;2024-03-23T15:12:59;7.30;99.90
4461;DHT22;2243;48.812;9.232;2024-03-23T15:15:29;7.50;99.90
4461;DHT22;2243;48.812;9.232;2024-03-23T15:17:59;7.60;99.90
4461;DHT22;2243;48.812;9.232;2024-03-23T15:20:29;7.90;99.90
4461;DHT22;2243;48.812;9.232;2024-03-23T15:22:59;8.00;99.90
4461;DHT22;2243;48.812;9.232;2024-03-23T15:25:29;8.30;99.90
4461;DHT22;2243;48.812;9.232;2024-03-23T15:27:59;8.50;99.90
4461;DHT22;2243;48.812;9.232;2024-03-23T15:30:29;8.50;99.90
4461;DHT22;2243;48.812;9.232;2024-03-23T15:32:59;8.70;99.90
4461;DHT22;2243;48.812;9.232;2024-03-23T15:35:29;8.80;99.90
4461;DHT22;2243;48.812;9.232;2024-03-23T15:37:59;8.90;99.90
4461;DHT22;2243;48.812;9.232;2024-03-23T15:40:29;9.00;99.90
4461;DHT22;2243;48.812;9.232;2024-03-23T15:42:59;9.10;99.90
4461;DHT22;2243;48.812;9.232;2024-03-23T15:45:30;9.20;99.90
4461;DHT22;2243;48.812;9.232;2024-03-23T15:48:00;9.10;99.90
4461;DHT22;2243;48.812;9.232;2024-03-23T15:50:30;9.10;99.90
4461;DHT22;2243;48.812;9.232;2024-03-23T15:53:00;9.30;99.90
4461;DHT22;2243;48.812;9.232;2024-03-23T15:55:29;9.30;99.90
4461;DHT22;2243;48.812;9.232;2024-03-23T15:57:59;9.40;99.90
4461;DHT22;2243;48.812;9.232;2024-03-23T16:00:30;9.60;99.90
4461;DHT22;2243;48.812;9.232;2024-03-23T16:03:03;9.80;99.90
4461;DHT22;2243;48.812;9.232;2024-03-23T16:05:33;9.70;99.90
4461;DHT22;2243;48.812;9.232;2024-03-23T16:08:03;9.60;99.90
4461;DHT22;2243;48.812;9.232;2024-03-23T16:10:34;9.60;99.90
4461;DHT22;2243;48.812;9.232;2024-03-23T16:13:04;9.50;99.90
4461;DHT22;2243;48.812;9.232;2024-03-23T16:15:34;9.40;99.90
4461;DHT22;2243;48.812;9.232;2024-03-23T16:18:04;9.40;99.90
4461;DHT22;2243;48.812;9.232;2024-03-23T16:20:34;9.40;99.90
4461;DHT22;2243;48.812;9.232;2024-03-23T16:23:04;9.50;99.90
4461;DHT22;2243;48.812;9.232;2024-03-23T16:25:34;9.40;99.90
4461;DHT22;2243;48.812;9.232;2024-03-23T16:28:04;9.30;99.90
4461;DHT22;2243;48.812;9.232;2024-03-23T16:30:34;9.30;99.90
4461;DHT22;2243;48.812;9.232;2024-03-23T16:33:04;9.20;99.90
4461;DHT22;2243;48.812;9.232;2024-03-23T16:35:34;9.10;99.90
4461;DHT22;2243;48.812;9.232;2024-03-23T16:38:04;8.90;99.90
4461;DHT22;2243;48.812;9.232;2024-03-23T16:40:34;8.80;99.90
4461;DHT22;2243;48.812;9.232;2024-03-23T16:43:05;8.70;99.90
4461;DHT22;2243;48.812;9.232;2024-03-23T16:45:35;8.50;99.90
4461;DHT22;2243;48.812;9.232;2024-03-23T16:48:05;8.50;99.90
4461;DHT22;2243;48.812;9.232;2024-03-23T16:50:35;8.50;99.90
4461;DHT22;2243;48.812;9.232;2024-03-23T16:53:05;8.40;99.90
4461;DHT22;2243;48.812;9.232;2024-03-23T16:55:35;8.30;99.90
4461;DHT22;2243;48.812;9.232;2024-03-23T16:58:05;7.90;99.90
4461;DHT22;2243;48.812;9.232;2024-03-23T17:00:36;7.20;99.90
4461;DHT22;2243;48.812;9.232;2024-03-23T17:03:06;6.80;99.90
4461;DHT22;2243;48.812;9.232;2024-03-23T17:05:39;6.70;99.90
4461;DHT22;2243;48.812;9.232;2024-03-23T17:08:09;6.50;99.90
4461;DHT22;2243;48.812;9.232;2024-03-23T17:10:40;6.60;99.90
4461;DHT22;2243;48.812;9.232;2024-03-23T17:13:10;6.70;99.90
4461;DHT22;2243;48.812;9.232;2024-03-23T17:15:45;6.70;99.90
4461;DHT22;2243;48.812;9.232;2024-03-23T17:18:15;6.70;99.90
4461;DHT22;2243;48.812;9.232;2024-03-23T17:20:45;6.70;99.90
4461;DHT22;2243;48.812;9.232;2024-03-23T17:23:29;6.80;99.90
4461;DHT22;2243;48.812;9.232;2024-03-23T17:26:03;6.80;99.90
4461;DHT22;2243;48.812;9.232;2024-03-23T17:28:33;6.90;99.90